Terminal Aerodrome Forecast
Issued by NWS

Home | Current Version | Previous Version | Text Only | Print | Product List | Glossary On
Versions: 1 2 3 4 5 6 7 8 9 10 11 12 13 14 15 16 17 18
000
FTUS46 KSEW 261100
TAFBFI
TAF
KBFI 261127Z 2612/2712 00000KT P6SM FEW025
     FM261400 VRB03KT P6SM FEW020
     FM261800 31005KT P6SM SKC
     FM270600 00000KT P6SM SKC=

USA.gov is the U.S. government's official web portal to all federal, state and local government web resources and services.